Accueil
METAR-TAF:

METAR-TAF

Aéroports :

Aéroport de Port Moresby-Jacksons

Port Moresby, Papouasie-Nouvelle-Guinée

latitude: 09-26S, longitude: 147-13E, altitude: 38 m

Observation

Le bulletin a été fait il y a 47 minutes, à 08:00 UTC
Vent 10 kt de ouest
Température 31°C
Humidité 71%
Pression 1006 hPa
Visibilité 10 km ou plus
Nuages épars à une hauteur de 8000 ft

METAR: AYPY 270800Z 26010KT 9999 SCT080 31/25 Q1006

Heure: 18:47 (08:47 UTC)

Prévision

Le bulletin a été fait il y a 5 heures et 17 minutes, à 03:30 UTC
Prévision valable du 27 à 06 UTC au 28 à 06 UTC
Vent 8 kt de nord/nord-ouest
Visibilité: 1009 m
Nuages épars à une hauteur de 1800 ft
Nuages épars à une hauteur de 4000 ft

TAF: AYPY 270330Z 2706/2806 34008KT 9999 SCT018 SCT040 T 31 29 28 26 Q 1007 1008 1010 1009

Observations et prévisions météorologiques de plus de 4000 aéroports (messages METAR et TAF).

Les stations disponibles sont représentées par des disques jaunes et rouges sur la carte.

Passer la souris dessus pour voir le nom de la station.

Cliquer dessus pour voir les observations et prévisions météorologiques.

Pour changer de carte: cliquez sur les boutons verts avec une croix noire pour zoomer, sur le bouton vert avec un tiret pour effectuer un zoom arrière, ou sur les flèches vertes pour les cartes adjacentes.


METAR-TAF: